createdAt,value
2022-09-23T00:00:32.031Z,99.99
2022-09-23T00:01:31.918Z,99.99
2022-09-23T00:02:31.823Z,99.99
2022-09-23T00:03:31.940Z,99.99
2022-09-23T00:04:31.788Z,99.99
2022-09-23T00:05:31.842Z,99.99
2022-09-23T00:06:31.975Z,99.99
2022-09-23T00:07:31.819Z,99.99
2022-09-23T00:14:20.326Z,99.99
2022-09-23T00:15:18.571Z,99.99
2022-09-23T00:16:18.494Z,99.99
2022-09-23T00:17:18.672Z,99.99
2022-09-23T00:18:18.630Z,99.99
2022-09-23T00:19:18.430Z,99.99
2022-09-23T00:20:18.596Z,99.99
2022-09-23T00:21:18.415Z,99.99
2022-09-23T00:22:18.651Z,99.99
2022-09-23T00:23:18.415Z,99.99
2022-09-23T00:24:18.449Z,99.99
2022-09-23T00:25:18.351Z,99.99
2022-09-23T00:26:18.360Z,99.99
2022-09-23T00:27:18.477Z,99.99
2022-09-23T00:28:18.454Z,99.99
2022-09-23T00:29:18.320Z,99.99
2022-09-23T00:30:18.298Z,99.99
2022-09-23T00:31:18.376Z,99.99
2022-09-23T00:32:18.362Z,99.99
2022-09-23T00:33:18.493Z,99.99
2022-09-23T00:34:18.324Z,99.99
2022-09-23T00:35:18.370Z,99.99
2022-09-23T00:36:18.304Z,99.99
2022-09-23T00:37:18.200Z,99.99
2022-09-23T00:38:18.185Z,99.99
2022-09-23T00:39:18.249Z,99.99
2022-09-23T00:40:18.359Z,99.99
2022-09-23T00:41:18.191Z,99.99
2022-09-23T00:42:18.255Z,99.99
2022-09-23T00:43:18.349Z,99.99
2022-09-23T00:44:18.203Z,99.99
2022-09-23T00:45:18.244Z,99.99
2022-09-23T00:46:18.151Z,99.99
2022-09-23T00:47:18.315Z,99.99
2022-09-23T00:48:18.277Z,99.99
2022-09-23T00:49:18.104Z,99.99
2022-09-23T00:50:18.138Z,99.99
2022-09-23T00:51:18.168Z,99.99
2022-09-23T00:52:18.530Z,99.99
2022-09-23T00:53:18.338Z,99.99
2022-09-23T00:54:18.075Z,99.52
2022-09-23T00:55:18.076Z,99.52
2022-09-23T00:56:18.698Z,99.79
2022-09-23T00:57:18.078Z,99.68
2022-09-23T00:58:18.084Z,98.96
2022-09-23T00:59:17.989Z,98.55
2022-09-23T01:00:18.594Z,98.25
2022-09-23T01:01:18.068Z,97.83
2022-09-23T01:02:18.011Z,97.17
2022-09-23T01:03:17.960Z,97.48
2022-09-23T01:04:18.126Z,97.17
2022-09-23T01:05:18.003Z,96.77
2022-09-23T01:06:18.547Z,96.97
2022-09-23T01:07:18.123Z,96.87
2022-09-23T01:08:17.912Z,96.62
2022-09-23T01:09:18.130Z,96.87
2022-09-23T01:10:18.040Z,96.62
2022-09-23T01:11:17.951Z,96.31
2022-09-23T01:12:18.049Z,95.79
2022-09-23T01:13:18.071Z,95.39
2022-09-23T01:14:17.834Z,94.67
2022-09-23T01:15:17.967Z,94.36
2022-09-23T01:16:18.058Z,95.07
2022-09-23T01:17:17.884Z,93.54
2022-09-23T01:18:17.950Z,93.54
2022-09-23T01:19:17.958Z,94.52
2022-09-23T01:20:17.949Z,94.42
2022-09-23T01:21:17.784Z,93.80
2022-09-23T01:22:17.777Z,93.49
2022-09-23T01:23:17.798Z,93.80
2022-09-23T01:24:18.275Z,92.57
2022-09-23T01:25:17.827Z,92.98
2022-09-23T01:26:18.123Z,93.04
2022-09-23T01:27:17.746Z,93.45
2022-09-23T01:28:17.745Z,93.15
2022-09-23T01:29:17.886Z,92.94
2022-09-23T01:30:17.677Z,93.04
2022-09-23T01:31:17.939Z,93.04
2022-09-23T01:32:17.865Z,92.94
2022-09-23T01:33:17.891Z,93.35
2022-09-23T01:34:17.699Z,93.70
2022-09-23T01:35:17.618Z,93.39
2022-09-23T01:36:17.797Z,92.88
2022-09-23T01:37:17.758Z,92.47
2022-09-23T01:38:17.730Z,92.78
2022-09-23T01:39:17.633Z,92.98
2022-09-23T01:40:17.648Z,93.29
2022-09-23T01:41:17.879Z,93.49
2022-09-23T01:42:17.556Z,92.57
2022-09-23T01:43:17.676Z,92.88
2022-09-23T01:44:17.746Z,92.78
2022-09-23T01:45:18.009Z,93.19
2022-09-23T01:46:17.655Z,93.80
2022-09-23T01:47:17.513Z,91.55
2022-09-23T01:48:17.972Z,91.44
2022-09-23T01:49:18.072Z,92.36
2022-09-23T01:50:17.928Z,92.68
2022-09-23T01:51:17.621Z,93.55
2022-09-23T01:52:17.457Z,92.53
2022-09-23T01:53:17.489Z,92.32
2022-09-23T01:54:17.618Z,92.53
2022-09-23T01:55:17.441Z,92.43
2022-09-23T01:56:17.446Z,92.22
2022-09-23T01:57:17.629Z,91.65
2022-09-23T01:58:17.662Z,92.22
2022-09-23T01:59:17.439Z,92.57
2022-09-23T02:00:17.389Z,92.83
2022-09-23T02:01:17.491Z,92.12
2022-09-23T02:02:17.412Z,92.02
2022-09-23T02:03:17.352Z,92.74
2022-09-23T02:04:17.359Z,92.53
2022-09-23T02:05:17.710Z,91.20
2022-09-23T02:06:17.305Z,90.07
2022-09-23T02:07:17.299Z,91.71
2022-09-23T02:08:17.443Z,89.45
2022-09-23T02:09:17.307Z,90.13
2022-09-23T02:10:17.293Z,90.34
2022-09-23T02:11:17.283Z,90.64
2022-09-23T02:12:17.267Z,90.44
2022-09-23T02:13:17.250Z,89.62
2022-09-23T02:14:17.261Z,89.92
2022-09-23T02:15:17.227Z,90.03
2022-09-23T02:16:17.247Z,90.13
2022-09-23T02:17:17.230Z,88.90
2022-09-23T02:18:17.182Z,89.47
2022-09-23T02:19:17.312Z,89.89
2022-09-23T02:20:17.173Z,90.70
2022-09-23T02:21:17.193Z,89.98
2022-09-23T02:22:17.165Z,89.37
2022-09-23T02:23:17.791Z,88.56
2022-09-23T02:24:17.125Z,89.37
2022-09-23T02:25:17.462Z,89.58
2022-09-23T02:26:17.213Z,88.76
2022-09-23T02:27:17.128Z,89.06
2022-09-23T02:28:17.104Z,89.27
2022-09-23T02:29:17.176Z,89.17
2022-09-23T02:30:17.132Z,88.80
2022-09-23T02:31:17.082Z,87.77
2022-09-23T02:32:17.095Z,88.29
2022-09-23T02:33:17.083Z,89.51
2022-09-23T02:34:17.059Z,89.21
2022-09-23T02:35:17.077Z,87.98
2022-09-23T02:36:17.070Z,88.59
2022-09-23T02:37:17.031Z,90.13
2022-09-23T02:38:17.016Z,89.42
2022-09-23T02:39:17.211Z,88.14
2022-09-23T02:40:17.097Z,88.76
2022-09-23T02:41:16.977Z,88.35
2022-09-23T02:42:17.026Z,89.06
2022-09-23T02:43:17.015Z,89.06
2022-09-23T02:44:17.180Z,88.14
2022-09-23T02:45:17.191Z,87.88
2022-09-23T02:46:17.051Z,87.57
2022-09-23T02:47:16.928Z,86.10
2022-09-23T02:48:16.868Z,86.30
2022-09-23T02:49:16.951Z,86.30
2022-09-23T02:50:17.083Z,87.53
2022-09-23T02:51:16.962Z,86.71
2022-09-23T02:52:17.102Z,85.07
2022-09-23T02:53:17.321Z,85.24
2022-09-23T02:54:16.993Z,85.55
2022-09-23T02:55:17.080Z,87.38
2022-09-23T02:56:16.828Z,87.08
2022-09-23T02:57:16.970Z,86.16
2022-09-23T02:58:17.118Z,85.96
2022-09-23T02:59:17.030Z,86.57
2022-09-23T03:00:16.958Z,85.64
2022-09-23T03:01:17.181Z,86.98
2022-09-23T03:02:16.847Z,86.67
2022-09-23T03:03:16.867Z,87.08
2022-09-23T03:04:16.754Z,86.88
2022-09-23T03:05:17.001Z,86.05
2022-09-23T03:06:16.900Z,87.18
2022-09-23T03:07:16.832Z,86.77
2022-09-23T03:08:16.988Z,86.10
2022-09-23T03:09:16.911Z,83.33
2022-09-23T03:10:16.752Z,84.46
2022-09-23T03:11:17.081Z,84.66
2022-09-23T03:12:16.708Z,86.05
2022-09-23T03:13:16.912Z,85.64
2022-09-23T03:14:16.703Z,85.96
2022-09-23T03:15:16.634Z,85.85
2022-09-23T03:16:16.728Z,86.67
2022-09-23T03:17:16.752Z,86.57
2022-09-23T03:18:16.838Z,87.18
2022-09-23T03:19:16.741Z,83.44
2022-09-23T03:20:16.809Z,85.24
2022-09-23T03:21:16.568Z,85.24
2022-09-23T03:22:16.788Z,86.36
2022-09-23T03:23:16.978Z,83.60
2022-09-23T03:24:16.910Z,84.72
2022-09-23T03:25:16.751Z,83.09
2022-09-23T03:26:16.503Z,84.11
2022-09-23T03:27:16.500Z,84.72
2022-09-23T03:28:16.695Z,85.64
2022-09-23T03:29:16.637Z,84.11
2022-09-23T03:30:16.668Z,84.22
2022-09-23T03:31:16.592Z,85.55
2022-09-23T03:32:16.521Z,85.44
2022-09-23T03:33:16.682Z,85.44
2022-09-23T03:34:16.481Z,85.14
2022-09-23T03:35:16.719Z,86.10
2022-09-23T03:36:16.401Z,85.89
2022-09-23T03:37:16.586Z,85.58
2022-09-23T03:38:16.413Z,86.81
2022-09-23T03:39:16.455Z,86.51
2022-09-23T03:40:16.501Z,87.22
2022-09-23T03:41:16.857Z,86.24
2022-09-23T03:42:16.622Z,85.31
2022-09-23T03:43:16.339Z,85.72
2022-09-23T03:44:16.548Z,86.14
2022-09-23T03:45:17.174Z,87.37
2022-09-23T03:46:16.492Z,86.75
2022-09-23T03:47:16.448Z,86.04
2022-09-23T03:48:16.574Z,86.85
2022-09-23T03:49:16.295Z,87.88
2022-09-23T03:50:16.398Z,87.57
2022-09-23T03:51:16.258Z,88.08
2022-09-23T03:52:16.251Z,87.88
2022-09-23T03:53:16.275Z,87.37
2022-09-23T03:54:16.230Z,87.67
2022-09-23T03:55:16.259Z,87.67
2022-09-23T03:56:16.237Z,88.12
2022-09-23T03:57:16.239Z,89.04
2022-09-23T03:58:16.220Z,87.92
2022-09-23T03:59:16.423Z,88.23
2022-09-23T04:00:16.534Z,88.33
2022-09-23T04:01:16.676Z,87.92
2022-09-23T04:02:16.388Z,88.94
2022-09-23T04:03:16.151Z,88.84
2022-09-23T04:04:16.448Z,89.36
2022-09-23T04:05:16.237Z,89.04
2022-09-23T04:06:16.117Z,88.53
2022-09-23T04:07:16.235Z,89.56
2022-09-23T04:08:16.492Z,89.76
2022-09-23T04:09:17.153Z,89.39
2022-09-23T04:10:16.266Z,89.39
2022-09-23T04:11:16.063Z,89.09
2022-09-23T04:12:16.149Z,89.39
2022-09-23T04:13:16.235Z,89.60
2022-09-23T04:14:16.039Z,89.70
2022-09-23T04:15:16.049Z,89.50
2022-09-23T04:16:16.137Z,89.70
2022-09-23T04:17:16.111Z,90.32
2022-09-23T04:18:16.551Z,90.73
2022-09-23T04:19:16.025Z,90.87
2022-09-23T04:20:16.156Z,90.56
2022-09-23T04:21:16.069Z,90.46
2022-09-23T04:22:16.188Z,89.03
2022-09-23T04:23:15.944Z,89.64
2022-09-23T04:24:15.942Z,90.52
2022-09-23T04:25:16.299Z,90.11
2022-09-23T04:26:15.959Z,90.42
2022-09-23T04:27:15.895Z,90.32
2022-09-23T04:28:16.003Z,90.22
2022-09-23T04:29:16.116Z,90.26
2022-09-23T04:30:16.039Z,91.03
2022-09-23T04:31:15.939Z,91.38
2022-09-23T04:32:15.994Z,90.67
2022-09-23T04:33:16.088Z,90.97
2022-09-23T04:34:15.835Z,90.87
2022-09-23T04:35:15.876Z,90.97
2022-09-23T04:36:15.866Z,90.97
2022-09-23T04:37:15.993Z,91.59
2022-09-23T04:38:15.991Z,91.38
2022-09-23T04:39:15.942Z,91.28
2022-09-23T04:40:16.016Z,91.49
2022-09-23T04:41:15.835Z,92.10
2022-09-23T04:42:15.764Z,92.00
2022-09-23T04:43:15.917Z,92.00
2022-09-23T04:44:15.752Z,91.80
2022-09-23T04:45:15.795Z,92.00
2022-09-23T04:46:15.906Z,92.00
2022-09-23T04:47:15.708Z,91.69
2022-09-23T04:48:15.731Z,91.49
2022-09-23T04:49:16.009Z,91.80
2022-09-23T04:50:15.683Z,91.80
2022-09-23T04:51:16.196Z,91.90
2022-09-23T04:52:15.948Z,92.10
2022-09-23T04:53:15.921Z,91.90
2022-09-23T04:54:15.926Z,90.36
2022-09-23T04:55:15.793Z,89.95
2022-09-23T04:56:15.960Z,91.08
2022-09-23T04:57:15.838Z,91.49
2022-09-23T04:58:15.679Z,91.38
2022-09-23T04:59:15.624Z,90.97
2022-09-23T05:00:15.581Z,90.56
2022-09-23T05:01:15.972Z,90.67
2022-09-23T05:02:15.598Z,90.87
2022-09-23T05:03:15.908Z,89.64
2022-09-23T05:04:15.916Z,90.46
2022-09-23T05:05:15.798Z,90.56
2022-09-23T05:06:15.671Z,90.73
2022-09-23T05:07:15.607Z,90.11
2022-09-23T05:08:15.624Z,90.32
2022-09-23T05:09:15.569Z,90.87
2022-09-23T05:10:15.732Z,90.56
2022-09-23T05:11:16.114Z,91.18
2022-09-23T05:12:15.532Z,91.08
2022-09-23T05:13:15.701Z,90.87
2022-09-23T05:14:15.511Z,91.28
2022-09-23T05:15:15.710Z,91.69
2022-09-23T05:16:15.488Z,92.00
2022-09-23T05:17:16.018Z,92.31
2022-09-23T05:18:20.172Z,92.41
2022-09-23T05:19:15.686Z,92.21
2022-09-23T05:20:15.867Z,92.21
2022-09-23T05:21:16.080Z,92.41
2022-09-23T05:22:15.420Z,92.41
2022-09-23T05:23:15.816Z,92.61
2022-09-23T05:24:15.470Z,92.51
2022-09-23T05:25:15.977Z,92.51
2022-09-23T05:26:15.360Z,92.25
2022-09-23T05:27:15.973Z,92.46
2022-09-23T05:28:15.701Z,92.76
2022-09-23T05:29:15.436Z,92.86
2022-09-23T05:30:15.382Z,92.97
2022-09-23T05:31:19.726Z,93.38
2022-09-23T05:32:15.516Z,93.17
2022-09-23T05:33:15.673Z,93.27
2022-09-23T05:34:15.710Z,93.17
2022-09-23T05:35:15.771Z,93.38
2022-09-23T05:36:15.489Z,93.52
2022-09-23T05:37:15.248Z,93.73
2022-09-23T05:38:15.372Z,93.52
2022-09-23T05:39:15.459Z,93.73
2022-09-23T05:40:15.240Z,94.14
2022-09-23T05:41:15.449Z,94.04
2022-09-23T05:42:15.175Z,94.14
2022-09-23T05:43:15.483Z,94.49
2022-09-23T05:44:15.162Z,94.29
2022-09-23T05:45:15.131Z,94.59
2022-09-23T05:46:15.263Z,95.01
2022-09-23T05:47:15.125Z,95.21
2022-09-23T05:48:15.217Z,95.31
2022-09-23T05:49:15.457Z,95.31
2022-09-23T05:50:15.093Z,95.36
2022-09-23T05:51:15.249Z,95.67
2022-09-23T05:52:15.226Z,96.18
2022-09-23T05:53:15.158Z,95.97
2022-09-23T05:54:15.035Z,96.39
2022-09-23T05:55:15.203Z,96.48
2022-09-23T05:56:15.039Z,96.80
2022-09-23T05:57:14.999Z,96.48
2022-09-23T05:58:15.161Z,96.80
2022-09-23T05:59:14.986Z,97.00
2022-09-23T06:00:15.007Z,97.20
2022-09-23T06:01:15.165Z,97.10
2022-09-23T06:02:15.045Z,97.20
2022-09-23T06:03:15.164Z,97.10
2022-09-23T06:04:15.179Z,97.00
2022-09-23T06:05:15.075Z,97.52
2022-09-23T06:06:15.082Z,97.20
2022-09-23T06:07:15.167Z,96.95
2022-09-23T06:08:15.119Z,97.16
2022-09-23T06:09:14.933Z,97.37
2022-09-23T06:10:14.916Z,97.27
2022-09-23T06:11:14.988Z,97.27
2022-09-23T06:12:14.921Z,97.27
2022-09-23T06:13:14.876Z,97.78
2022-09-23T06:14:15.071Z,97.99
2022-09-23T06:15:14.836Z,97.99
2022-09-23T06:16:14.970Z,97.88
2022-09-23T06:17:14.801Z,97.88
2022-09-23T06:18:14.946Z,98.08
2022-09-23T06:19:14.886Z,97.99
2022-09-23T06:20:14.788Z,97.99
2022-09-23T06:21:14.779Z,98.08
2022-09-23T06:22:14.779Z,98.25
2022-09-23T06:23:14.918Z,98.14
2022-09-23T06:24:19.725Z,98.25
2022-09-23T06:25:14.733Z,98.45
2022-09-23T06:26:14.764Z,98.55
2022-09-23T06:27:14.836Z,98.86
2022-09-23T06:28:14.940Z,98.66
2022-09-23T06:29:15.092Z,98.92
2022-09-23T06:30:14.696Z,98.82
2022-09-23T06:31:14.728Z,98.71
2022-09-23T06:32:14.713Z,98.82
2022-09-23T06:33:14.686Z,98.82
2022-09-23T06:34:14.969Z,98.97
2022-09-23T06:35:24.874Z,99.28
2022-09-23T06:36:27.476Z,98.97
2022-09-23T06:37:19.980Z,98.87
2022-09-23T06:38:15.068Z,98.87
2022-09-23T06:39:14.815Z,98.83
2022-09-23T06:40:14.682Z,99.44
2022-09-23T06:41:14.693Z,99.34
2022-09-23T06:42:14.615Z,99.19
2022-09-23T06:43:14.596Z,99.19
2022-09-23T06:44:14.585Z,98.78
2022-09-23T06:45:15.055Z,98.78
2022-09-23T06:46:14.674Z,98.83
2022-09-23T06:47:14.553Z,98.43
2022-09-23T06:48:14.513Z,98.33
2022-09-23T06:49:14.604Z,97.56
2022-09-23T06:50:14.488Z,96.84
2022-09-23T06:51:14.565Z,95.82
2022-09-23T06:52:14.457Z,96.19
2022-09-23T06:53:14.501Z,96.29
2022-09-23T06:54:14.461Z,96.14
2022-09-23T06:55:14.455Z,89.09
2022-09-23T06:56:14.629Z,86.59
2022-09-23T06:57:14.641Z,89.31
2022-09-23T06:58:14.454Z,87.37
2022-09-23T06:59:14.429Z,84.57
2022-09-23T07:00:14.517Z,85.35
2022-09-23T07:01:14.413Z,83.98
2022-09-23T07:02:14.472Z,84.39
2022-09-23T07:03:14.476Z,84.45
2022-09-23T07:04:14.633Z,85.37
2022-09-23T07:05:14.369Z,84.20
2022-09-23T07:06:14.337Z,84.00
2022-09-23T07:07:14.565Z,81.96
2022-09-23T07:08:14.665Z,82.74
2022-09-23T07:09:14.474Z,84.27
2022-09-23T07:10:14.593Z,84.67
2022-09-23T07:11:14.461Z,84.98
2022-09-23T07:12:14.276Z,81.17
2022-09-23T07:13:16.392Z,78.63
2022-09-23T07:14:14.530Z,80.46
2022-09-23T07:15:14.271Z,82.09
2022-09-23T07:16:14.451Z,83.82
2022-09-23T07:17:14.229Z,84.84
2022-09-23T07:18:14.354Z,83.42
2022-09-23T07:19:14.199Z,84.29
2022-09-23T07:20:14.651Z,84.09
2022-09-23T07:21:14.215Z,83.58
2022-09-23T07:22:14.258Z,80.02
2022-09-23T07:23:14.190Z,78.69
2022-09-23T07:24:14.716Z,80.83
2022-09-23T07:25:14.207Z,81.60
2022-09-23T07:26:14.211Z,81.20
2022-09-23T07:27:14.318Z,79.06
2022-09-23T07:28:14.661Z,79.88
2022-09-23T07:29:14.335Z,77.74
2022-09-23T07:30:24.078Z,79.13
2022-09-23T07:31:14.568Z,80.76
2022-09-23T07:32:14.635Z,77.40
2022-09-23T07:33:28.920Z,75.57
2022-09-23T07:34:14.137Z,78.21
2022-09-23T07:35:14.078Z,79.23
2022-09-23T07:36:14.139Z,78.38
2022-09-23T07:37:14.101Z,75.73
2022-09-23T07:38:14.049Z,77.77
2022-09-23T07:39:14.022Z,77.36
2022-09-23T07:40:14.079Z,76.86
2022-09-23T07:41:13.980Z,78.85
2022-09-23T07:42:14.211Z,80.17
2022-09-23T07:43:13.983Z,80.88
2022-09-23T07:44:13.957Z,79.97
2022-09-23T07:45:13.953Z,75.29
2022-09-23T07:46:14.083Z,76.98
2022-09-23T07:47:13.976Z,73.43
2022-09-23T07:48:13.934Z,76.17
2022-09-23T07:49:13.937Z,75.05
2022-09-23T07:50:13.885Z,77.49
2022-09-23T07:51:14.087Z,77.80
2022-09-23T07:52:14.095Z,77.09
2022-09-23T07:53:13.895Z,73.63
2022-09-23T07:54:13.902Z,75.93
2022-09-23T07:55:17.603Z,77.15
2022-09-23T07:56:13.884Z,77.25
2022-09-23T07:57:14.082Z,76.75
2022-09-23T07:58:13.874Z,77.56
2022-09-23T07:59:13.836Z,73.09
2022-09-23T08:00:13.859Z,75.02
2022-09-23T08:01:14.288Z,76.34
2022-09-23T08:02:13.942Z,77.25
2022-09-23T08:03:14.256Z,75.02
2022-09-23T08:04:13.767Z,72.69
2022-09-23T08:05:13.807Z,72.89
2022-09-23T08:06:14.155Z,74.21
2022-09-23T08:07:13.794Z,75.83
2022-09-23T08:08:13.738Z,74.62
2022-09-23T08:09:13.935Z,71.88
2022-09-23T08:10:13.826Z,75.63
2022-09-23T08:11:13.677Z,76.24
2022-09-23T08:12:16.007Z,73.39
2022-09-23T08:13:13.740Z,74.21
2022-09-23T08:14:13.834Z,75.52
2022-09-23T08:15:13.638Z,74.10
2022-09-23T08:16:13.787Z,74.51
2022-09-23T08:17:13.793Z,73.70
2022-09-23T08:18:13.632Z,74.21
2022-09-23T08:19:13.757Z,72.99
2022-09-23T08:20:13.754Z,73.39
2022-09-23T08:21:13.603Z,75.52
2022-09-23T08:22:13.985Z,76.10
2022-09-23T08:23:13.580Z,77.01
2022-09-23T08:24:13.638Z,74.98
2022-09-23T08:25:13.532Z,76.20
2022-09-23T08:26:19.724Z,76.20
2022-09-23T08:27:13.518Z,77.83
2022-09-23T08:28:13.671Z,75.09
2022-09-23T08:29:13.487Z,77.83
2022-09-23T08:30:13.700Z,77.12
2022-09-23T08:31:13.552Z,77.83
2022-09-23T08:32:13.562Z,78.50
2022-09-23T08:33:13.678Z,78.19
2022-09-23T08:34:13.679Z,78.80
2022-09-23T08:35:13.532Z,78.70
2022-09-23T08:36:13.438Z,78.46
2022-09-23T08:37:13.441Z,75.22
2022-09-23T08:38:13.441Z,71.77
2022-09-23T08:39:13.477Z,73.29
2022-09-23T08:40:13.519Z,73.90
2022-09-23T08:41:13.412Z,75.22
2022-09-23T08:42:13.394Z,75.93
2022-09-23T08:43:13.396Z,74.51
2022-09-23T08:44:13.337Z,73.36
2022-09-23T08:45:13.354Z,73.46
2022-09-23T08:46:13.432Z,70.52
2022-09-23T08:47:13.340Z,73.66
2022-09-23T08:48:13.368Z,74.17
2022-09-23T08:49:13.284Z,72.14
2022-09-23T08:50:13.354Z,70.12
2022-09-23T08:51:13.348Z,70.52
2022-09-23T08:52:13.324Z,71.13
2022-09-23T08:53:13.257Z,72.34
2022-09-23T08:54:13.262Z,72.14
2022-09-23T08:55:13.254Z,74.37
2022-09-23T08:56:13.257Z,74.77
2022-09-23T08:57:13.392Z,75.08
2022-09-23T08:58:25.059Z,71.53
2022-09-23T08:59:13.299Z,72.34
2022-09-23T09:00:13.808Z,73.66
2022-09-23T09:01:13.376Z,73.66
2022-09-23T09:02:13.249Z,73.86
2022-09-23T09:03:13.166Z,74.68
2022-09-23T09:04:13.352Z,72.24
2022-09-23T09:05:13.361Z,68.80
2022-09-23T09:06:13.232Z,71.44
2022-09-23T09:07:35.266Z,72.31
2022-09-23T09:08:13.385Z,71.00
2022-09-23T09:09:13.130Z,71.91
2022-09-23T09:10:13.427Z,68.36
2022-09-23T09:11:13.311Z,72.01
2022-09-23T09:12:13.250Z,69.37
2022-09-23T09:13:13.185Z,71.70
2022-09-23T09:14:13.036Z,71.50
2022-09-23T09:15:13.083Z,71.20
2022-09-23T09:16:13.084Z,68.66
2022-09-23T09:17:13.048Z,70.08
2022-09-23T09:18:13.231Z,69.48
2022-09-23T09:19:12.999Z,68.02
2022-09-23T09:20:13.097Z,68.73
2022-09-23T09:21:13.088Z,71.97
2022-09-23T09:22:12.975Z,73.05
2022-09-23T09:23:12.979Z,70.12
2022-09-23T09:24:13.032Z,71.23
2022-09-23T09:25:14.429Z,72.24
2022-09-23T09:26:13.183Z,71.70
2022-09-23T09:27:13.058Z,69.89
2022-09-23T09:28:12.942Z,73.63
2022-09-23T09:29:33.677Z,68.54
2022-09-23T09:30:13.022Z,66.82
2022-09-23T09:31:12.947Z,71.57
2022-09-23T09:32:13.007Z,69.71
2022-09-23T09:33:12.898Z,67.80
2022-09-23T09:34:12.893Z,68.10
2022-09-23T09:35:12.837Z,70.39
2022-09-23T09:36:12.893Z,70.79
2022-09-23T09:37:12.910Z,66.86
2022-09-23T09:38:12.839Z,71.77
2022-09-23T09:39:12.808Z,73.28
2022-09-23T09:40:12.897Z,65.81
2022-09-23T09:41:12.801Z,65.71
2022-09-23T09:42:12.806Z,66.72
2022-09-23T09:43:12.765Z,62.48
2022-09-23T09:44:12.757Z,64.50
2022-09-23T09:45:12.809Z,62.68
2022-09-23T09:46:12.859Z,64.81
2022-09-23T09:47:12.739Z,62.08
2022-09-23T09:48:12.855Z,64.00
2022-09-23T09:49:12.803Z,63.90
2022-09-23T09:50:12.917Z,66.69
2022-09-23T09:51:12.834Z,65.88
2022-09-23T09:52:12.772Z,66.79
2022-09-23T09:53:12.646Z,66.99
2022-09-23T09:54:12.582Z,62.05
2022-09-23T09:55:12.596Z,64.64
2022-09-23T09:56:12.781Z,65.75
2022-09-23T09:57:12.638Z,65.25
2022-09-23T09:58:12.629Z,60.91
2022-09-23T09:59:12.699Z,65.15
2022-09-23T10:00:12.569Z,63.73
2022-09-23T10:01:12.617Z,62.19
2022-09-23T10:02:12.741Z,65.62
2022-09-23T10:03:12.524Z,67.84
2022-09-23T10:04:12.835Z,67.33
2022-09-23T10:05:12.475Z,61.99
2022-09-23T10:06:12.635Z,65.19
2022-09-23T10:07:12.734Z,64.28
2022-09-23T10:08:12.509Z,62.64
2022-09-23T10:09:12.542Z,61.83
2022-09-23T10:10:31.436Z,61.90
2022-09-23T10:11:12.499Z,63.68
2022-09-23T10:12:12.410Z,62.58
2022-09-23T10:13:12.455Z,66.37
2022-09-23T10:14:12.578Z,65.77
2022-09-23T10:15:12.469Z,61.61
2022-09-23T10:16:12.433Z,61.11
2022-09-23T10:17:12.518Z,63.53
2022-09-23T10:18:12.442Z,62.79
2022-09-23T10:19:12.337Z,61.38
2022-09-23T10:20:12.421Z,64.80
2022-09-23T10:21:12.510Z,59.67
2022-09-23T10:22:12.497Z,57.87
2022-09-23T10:23:12.489Z,62.69
2022-09-23T10:24:12.697Z,56.16
2022-09-23T10:25:12.391Z,60.75
2022-09-23T10:26:12.443Z,57.84
2022-09-23T10:27:12.439Z,56.46
2022-09-23T10:28:12.424Z,55.66
2022-09-23T10:29:12.280Z,55.86
2022-09-23T10:30:12.461Z,57.77
2022-09-23T10:31:12.239Z,60.28
2022-09-23T10:32:12.232Z,59.27
2022-09-23T10:33:12.531Z,56.96
2022-09-23T10:34:12.198Z,59.98
2022-09-23T10:35:12.476Z,62.59
2022-09-23T10:36:12.534Z,57.50
2022-09-23T10:37:12.469Z,61.41
2022-09-23T10:38:12.269Z,59.00
2022-09-23T10:39:12.223Z,59.80
2022-09-23T10:40:12.212Z,60.21
2022-09-23T10:41:12.307Z,59.10
2022-09-23T10:42:12.461Z,58.93
2022-09-23T10:43:12.336Z,59.20
2022-09-23T10:44:12.123Z,59.10
2022-09-23T10:45:12.629Z,59.80
2022-09-23T10:46:12.350Z,57.37
2022-09-23T10:47:12.329Z,59.98
2022-09-23T10:48:12.110Z,57.87
2022-09-23T10:49:12.138Z,55.46
2022-09-23T10:50:12.241Z,56.34
2022-09-23T10:51:12.230Z,56.46
2022-09-23T10:52:12.420Z,60.05
2022-09-23T10:53:12.005Z,60.85
2022-09-23T10:54:12.087Z,57.34
2022-09-23T10:55:12.101Z,58.84
2022-09-23T10:56:12.049Z,59.65
2022-09-23T10:57:11.979Z,59.72
2022-09-23T10:58:12.343Z,56.71
2022-09-23T10:59:12.055Z,58.39
2022-09-23T11:00:12.047Z,55.38
2022-09-23T11:01:12.105Z,58.16
2022-09-23T11:02:11.957Z,54.25
2022-09-23T11:03:11.944Z,57.76
2022-09-23T11:04:12.489Z,58.33
2022-09-23T11:05:11.944Z,56.33
2022-09-23T11:06:12.036Z,55.65
2022-09-23T11:07:12.052Z,55.45
2022-09-23T11:08:11.915Z,57.68
2022-09-23T11:09:12.043Z,54.88
2022-09-23T11:10:23.225Z,57.86
2022-09-23T11:11:12.261Z,56.56
2022-09-23T11:12:11.898Z,56.65
2022-09-23T11:13:11.841Z,56.56
2022-09-23T11:14:11.780Z,56.35
2022-09-23T11:15:11.851Z,57.26
2022-09-23T11:16:11.862Z,58.16
2022-09-23T11:17:12.107Z,58.23
2022-09-23T11:18:11.814Z,56.33
2022-09-23T11:19:12.041Z,54.93
2022-09-23T11:20:11.761Z,54.32
2022-09-23T11:21:11.937Z,55.63
2022-09-23T11:22:11.798Z,55.63
2022-09-23T11:23:11.860Z,55.32
2022-09-23T11:24:11.948Z,55.63
2022-09-23T11:25:11.785Z,56.93
2022-09-23T11:26:11.761Z,59.00
2022-09-23T11:27:11.716Z,57.20
2022-09-23T11:28:11.921Z,54.17
2022-09-23T11:29:11.946Z,55.07
2022-09-23T11:30:11.691Z,56.55
2022-09-23T11:31:11.737Z,51.84
2022-09-23T11:32:11.671Z,51.44
2022-09-23T11:33:11.672Z,54.74
2022-09-23T11:34:11.642Z,57.02
2022-09-23T11:35:11.747Z,54.19
2022-09-23T11:36:11.635Z,54.29
2022-09-23T11:37:11.661Z,55.27
2022-09-23T11:38:11.629Z,52.77
2022-09-23T11:39:11.706Z,56.07
2022-09-23T11:40:11.846Z,51.37
2022-09-23T11:41:11.912Z,52.17
2022-09-23T11:42:11.622Z,51.84
2022-09-23T11:43:11.770Z,52.84
2022-09-23T11:44:11.579Z,48.14
2022-09-23T11:45:11.548Z,51.64
2022-09-23T11:46:11.723Z,49.85
2022-09-23T11:47:11.592Z,47.07
2022-09-23T11:48:11.481Z,52.64
2022-09-23T11:49:11.554Z,49.65
2022-09-23T11:50:11.515Z,49.57
2022-09-23T11:51:11.528Z,51.94
2022-09-23T11:52:11.632Z,52.27
2022-09-23T11:53:11.484Z,52.27
2022-09-23T11:54:11.549Z,53.97
2022-09-23T11:55:20.181Z,50.59
2022-09-23T11:56:11.523Z,52.00
2022-09-23T11:57:11.531Z,50.79
2022-09-23T11:58:22.873Z,54.60
2022-09-23T11:59:12.018Z,53.12
2022-09-23T12:00:11.437Z,51.94
2022-09-23T12:01:11.457Z,55.15
2022-09-23T12:02:19.623Z,52.64
2022-09-23T12:03:13.759Z,54.05
2022-09-23T12:04:20.042Z,51.37
2022-09-23T12:05:11.428Z,51.39
2022-09-23T12:06:11.359Z,53.50
2022-09-23T12:07:11.407Z,54.67
2022-09-23T12:08:11.543Z,56.07
2022-09-23T12:09:11.364Z,54.14
2022-09-23T12:10:11.327Z,56.82
2022-09-23T12:11:11.335Z,53.62
2022-09-23T12:12:11.234Z,54.10
2022-09-23T12:13:11.269Z,51.02
2022-09-23T12:14:11.532Z,54.32
2022-09-23T12:15:11.511Z,52.72
2022-09-23T12:16:11.276Z,50.52
2022-09-23T12:17:11.205Z,53.22
2022-09-23T12:18:11.251Z,52.02
2022-09-23T12:19:11.414Z,50.29
2022-09-23T12:20:11.269Z,53.49
2022-09-23T12:21:27.083Z,53.79
2022-09-23T12:22:11.156Z,53.39
2022-09-23T12:23:11.245Z,53.59
2022-09-23T12:24:11.157Z,51.59
2022-09-23T12:25:11.222Z,55.59
2022-09-23T12:26:11.201Z,50.52
2022-09-23T12:27:11.272Z,51.02
2022-09-23T12:28:11.091Z,51.64
2022-09-23T12:29:11.574Z,51.87
2022-09-23T12:30:11.246Z,52.67
2022-09-23T12:31:11.199Z,54.30
2022-09-23T12:32:11.092Z,55.00
2022-09-23T12:33:11.276Z,56.00
2022-09-23T12:34:11.153Z,53.50
2022-09-23T12:35:11.073Z,53.00
2022-09-23T12:36:11.151Z,55.60
2022-09-23T12:37:11.115Z,53.92
2022-09-23T12:38:11.115Z,52.64
2022-09-23T12:39:11.107Z,52.97
2022-09-23T12:40:11.470Z,54.47
2022-09-23T12:41:10.970Z,54.40
2022-09-23T12:42:11.036Z,58.31
2022-09-23T12:43:11.116Z,58.31
2022-09-23T12:44:10.946Z,57.81
2022-09-23T12:45:10.918Z,57.71
2022-09-23T12:46:11.157Z,58.92
2022-09-23T12:47:11.057Z,57.74
2022-09-23T12:48:11.059Z,58.54
2022-09-23T12:49:11.106Z,55.53
2022-09-23T12:50:15.691Z,58.57
2022-09-23T12:51:10.928Z,56.96
2022-09-23T12:52:11.068Z,58.87
2022-09-23T12:53:10.821Z,61.38
2022-09-23T12:54:10.847Z,60.08
2022-09-23T12:55:11.011Z,57.97
2022-09-23T12:56:10.891Z,54.96
2022-09-23T12:57:10.855Z,56.46
2022-09-23T12:58:10.824Z,59.27